METAR Data
IDs: Format: Raw Decoded Include TAF

Data at: 1156 UTC 22 Jan 2022

KD57 221155Z AUTO 24003KT 10SM SCT030 SCT036 OVC060 M11/M14 A3015 RMK AO2
KD57 221135Z AUTO 00000KT 10SM OVC060 M11/M15 A3016 RMK AO2
KD57 221115Z AUTO 29003KT 10SM OVC060 M11/M15 A3018 RMK AO2
KD57 221055Z AUTO 26005KT 10SM FEW047 OVC060 M11/M15 A3019 RMK AO2
KD57 221035Z AUTO 00000KT 10SM BKN049 BKN060 OVC090 M11/M15 A3019 RMK AO2
KD57 221015Z AUTO 27005KT 10SM BKN047 BKN060 OVC090 M12/M15 A3020 RMK AO2
KD57 220955Z AUTO 29008KT 10SM FEW046 OVC060 M12/M15 A3020 RMK AO2
KD57 220935Z AUTO 26006KT 10SM OVC060 M12/M16 A3021 RMK AO2
KD57 220915Z AUTO 29007KT 10SM FEW055 OVC065 M12/M15 A3021 RMK AO2
KD57 220855Z AUTO 32005KT 10SM FEW055 OVC070 M12/M16 A3022 RMK AO2
KD57 220835Z AUTO 12003KT 10SM OVC070 M12/M16 A3022 RMK AO2
KD57 220815Z AUTO 00000KT 10SM OVC070 M13/M16 A3021 RMK AO2
KD57 220755Z AUTO 31004KT 10SM BKN070 M13/M16 A3021 RMK AO2
KD57 220735Z AUTO 27005KT 10SM SCT070 M13/M17 A3021 RMK AO2
KD57 220715Z AUTO 32007KT 10SM BKN070 M12/M16 A3021 RMK AO2
KD57 220655Z AUTO 31011KT 10SM CLR M12/M15 A3021 RMK AO2
KD57 220635Z AUTO 30010G15KT 10SM CLR M11/M15 A3021 RMK AO2
KD57 220615Z AUTO 32014KT 10SM CLR M11/M15 A3021 RMK AO2
KD57 220555Z AUTO 30012KT 10SM CLR M11/M15 A3020 RMK AO2
KD57 220535Z AUTO 31015G22KT 10SM CLR M10/M14 A3019 RMK AO2
KD57 220515Z AUTO 32017KT 10SM CLR M10/M14 A3019 RMK AO2
KD57 220455Z AUTO 32016KT 10SM CLR M10/M14 A3019 RMK AO2
KD57 220435Z AUTO 32012G17KT 10SM CLR M09/M13 A3018 RMK AO2
KD57 220415Z AUTO 32015KT 10SM CLR M09/M13 A3017 RMK AO2
KD57 220355Z AUTO 33017KT 10SM CLR M08/M12 A3016 RMK AO2
KD57 220335Z AUTO 33019KT 10SM CLR M07/M12 A3015 RMK AO2
KD57 220315Z AUTO 33017G23KT 10SM CLR M07/M11 A3015 RMK AO2
KD57 220255Z AUTO 33017G25KT 10SM CLR M06/M11 A3014 RMK AO2
KD57 220235Z AUTO 33019G24KT 10SM FEW024 FEW031 M05/M11 A3013 RMK AO2
KD57 220215Z AUTO 32018G28KT 10SM FEW024 FEW032 M04/M10 A3012 RMK AO2
KD57 220155Z AUTO 31021G26KT 10SM CLR M04/M10 A3011 RMK AO2
KD57 220135Z AUTO 31017KT 10SM CLR M04/M09 A3009 RMK AO2
KD57 220115Z AUTO 31017G25KT 10SM CLR M03/M09 A3008 RMK AO2
KD57 220055Z AUTO 31019G30KT 10SM CLR M02/M08 A3007 RMK AO2
KD57 220035Z AUTO 31022G29KT 10SM CLR M02/M08 A3005 RMK AO2
KD57 220015Z AUTO 31020KT 10SM FEW041 M02/M08 A3004 RMK AO2
KD57 212355Z AUTO 31017G25KT 10SM SCT041 M02/M08 A3004 RMK AO2
KD57 212335Z AUTO 31019KT 10SM CLR M02/M08 A3003 RMK AO2
KD57 212315Z AUTO 31019G28KT 10SM CLR M01/M07 A3003 RMK AO2
KD57 212255Z AUTO 31024G29KT 10SM CLR M00/M07 A3001 RMK AO2
KD57 212235Z AUTO 31024G32KT 10SM CLR 00/M07 A3001 RMK AO2
KD57 212215Z AUTO 31033G40KT 10SM FEW037 SCT045 01/M07 A3000 RMK AO2
KD57 212155Z AUTO 30027G35KT 10SM SCT040 BKN046 02/M07 A3000 RMK AO2
KD57 212135Z AUTO 30031G42KT 10SM CLR 02/M06 A2999 RMK AO2
KD57 212115Z AUTO 31025G38KT 10SM FEW033 SCT041 SCT047 01/M06 A2997 RMK AO2
KD57 212055Z AUTO 31034G43KT 10SM SCT031 BKN040 OVC047 02/M06 A2996 RMK AO2
KD57 212035Z AUTO 31023G33KT 10SM BKN036 OVC042 01/M05 A2996 RMK AO2
KD57 212015Z AUTO 30028G41KT 10SM SCT032 BKN040 OVC047 03/M05 A2995 RMK AO2
KD57 211955Z AUTO 30023G31KT 10SM SCT034 OVC041 02/M04 A2994 RMK AO2
KD57 211935Z AUTO 31026G32KT 10SM FEW030 OVC040 02/M04 A2994 RMK AO2
KD57 211915Z AUTO 31029G40KT 10SM SCT031 OVC038 02/M04 A2993 RMK AO2
KD57 211855Z AUTO 30028G34KT 10SM SCT034 OVC042 02/M04 A2992 RMK AO2
KD57 211835Z AUTO 30027G40KT 10SM OVC043 03/M03 A2992 RMK AO2
KD57 211815Z AUTO 30025G34KT 10SM OVC042 02/M03 A2991 RMK AO2
KD57 211755Z AUTO 30021G29KT 10SM OVC044 02/M02 A2990 RMK AO2 P0001
KD57 211735Z AUTO 30021G28KT 10SM SCT023 OVC043 02/M02 A2989 RMK AO2
KD57 211715Z AUTO 29020G30KT 10SM BKN023 BKN028 OVC046 02/M02 A2989 RMK AO2
KD57 211655Z AUTO 30021KT 10SM BKN046 02/M02 A2988 RMK AO2
KD57 211635Z AUTO 29022G30KT 10SM BKN042 02/M02 A2986 RMK AO2
KD57 211615Z AUTO 29020G25KT 10SM OVC042 02/M01 A2985 RMK AO2
KD57 211555Z AUTO 29019G24KT 10SM OVC043 02/M01 A2985 RMK AO2
KD57 211535Z AUTO 30015KT 10SM OVC042 02/M01 A2983 RMK AO2
KD57 211515Z AUTO 30018KT 10SM BKN041 01/M01 A2982 RMK AO2
KD57 211455Z AUTO 30014G19KT 10SM OVC042 01/M01 A2981 RMK AO2 P0001
KD57 211435Z AUTO 30014G20KT 10SM OVC042 01/M01 A2980 RMK AO2
KD57 211415Z AUTO 30015KT 10SM FEW017 SCT023 BKN036 01/M01 A2980 RMK AO2
KD57 211355Z AUTO 30014KT 10SM OVC017 01/M01 A2978 RMK AO2
KD57 211335Z AUTO 30015G20KT 10SM OVC017 01/M01 A2978 RMK AO2
KD57 211315Z AUTO 30013KT 10SM OVC017 01/M01 A2976 RMK AO2
KD57 211255Z AUTO 29013KT 10SM BKN017 OVC060 01/M01 A2974 RMK AO2
KD57 211235Z AUTO 25012KT 10SM BKN019 BKN027 OVC035 M01/M03 A2973 RMK AO2
KD57 211215Z AUTO 24012KT 10SM FEW029 BKN036 OVC055 M01/M03 A2973 RMK AO2
KD57 211155Z AUTO 23014KT 10SM BKN050 BKN060 OVC080 M02/M03 A2972 RMK AO2
KD57 211135Z AUTO 22014G26KT 10SM BKN028 BKN041 OVC075 M02/M04 A2971 RMK AO2
KD57 211115Z AUTO 21014KT 7SM SCT019 OVC026 M02/M04 A2971 RMK AO2
KD57 211055Z AUTO 21010KT 6SM -UP SCT018 OVC027 M03/M05 A2972 RMK AO2
KD57 211035Z AUTO 23006KT 10SM -UP SCT028 OVC035 M04/M06 A2973 RMK AO2
KD57 211015Z AUTO 00000KT 10SM FEW019 BKN029 OVC034 M04/M07 A2973 RMK AO2
KD57 210955Z AUTO VRB03KT 9SM SCT019 BKN024 OVC029 M05/M07 A2973 RMK AO2
KD57 210935Z AUTO 20005G11KT 4SM -UP FEW013 SCT023 OVC030 M05/M08 A2974 RMK AO2
KD57 210915Z AUTO 21009KT 4SM -UP SCT014 BKN031 OVC039 M05/M09 A2975 RMK AO2
KD57 210855Z AUTO VRB06G13KT 6SM HZ FEW014 SCT027 BKN036 M06/M09 A2976 RMK AO2
KD57 210835Z AUTO 19012KT 4SM -SN FEW023 BKN029 OVC033 M06/M10 A2976 RMK AO2
KD57 210815Z AUTO 19013G18KT 6SM HZ FEW004 BKN033 OVC060 M06/M11 A2976 RMK AO2
KD57 210755Z AUTO 19013KT 10SM FEW023 SCT049 OVC060 M06/M12 A2977 RMK AO2
KD57 210735Z AUTO 20015KT 10SM FEW024 SCT050 BKN075 M07/M13 A2978 RMK AO2
KD57 210715Z AUTO 19012KT 10SM SCT065 OVC100 M07/M13 A2979 RMK AO2
KD57 210655Z AUTO 19010KT 10SM OVC060 M08/M14 A2981 RMK AO2
KD57 210635Z AUTO 19012KT 10SM OVC060 M08/M14 A2982 RMK AO2
KD57 210615Z AUTO 19012KT 10SM SCT060 SCT110 M08/M15 A2984 RMK AO2
KD57 210555Z AUTO 19011G18KT 10SM FEW110 M09/M15 A2985 RMK AO2
KD57 210535Z AUTO 19010KT 10SM FEW120 M09/M15 A2987 RMK AO2
KD57 210515Z AUTO 18009KT 10SM FEW120 M10/M16 A2988 RMK AO2
KD57 210455Z AUTO 18009G15KT 10SM CLR M10/M16 A2990 RMK AO2
KD57 210435Z AUTO 18012G17KT 10SM CLR M10/M16 A2991 RMK AO2
KD57 210355Z AUTO 18015G20KT 10SM CLR M10/M16 A2993 RMK AO2
KD57 210335Z AUTO 19015KT 10SM CLR M10/M16 A2995 RMK AO2
KD57 210155Z AUTO 17014KT 10SM CLR M11/M18 A3000 RMK AO2
KD57 210135Z AUTO 17013G18KT 10SM CLR M11/M18 A3001 RMK AO2
KD57 210115Z AUTO 16008G14KT 10SM CLR M11/M18 A3004 RMK AO2
KD57 210055Z AUTO 16009KT 10SM CLR M10/M17 A3005 RMK AO2
KD57 210035Z AUTO 16010KT 10SM CLR M10/M17 A3006 RMK AO2
KD57 210015Z AUTO 16009KT 10SM CLR M10/M17 A3007 RMK AO2